Time;durP1;ratioP1;P1;durP2;ratioP2;P2;SDS_P1;SDS_P2;PMS_P1;PMS_P2;Temp;Humidity;BMP_temperature;BMP_pressure;BME280_temperature;BME280_humidity;BME280_pressure;Samples;Min_cycle;Max_cycle;Signal;HPM_P1;HPM_P2
2022/02/01 00:02:10;;;;;;;115.03;109.20;;;3.10;99.90;;;;;;4346540;33;20515;-65
2022/02/01 00:04:44;;;;;;;110.03;104.37;;;3.00;99.90;;;;;;4358579;33;20176;-62
2022/02/01 00:07:19;;;;;;;121.37;114.00;;;3.00;99.90;;;;;;4358220;32;20628;-64
2022/02/01 00:09:56;;;;;;;119.23;113.00;;;3.00;99.90;;;;;;4375022;32;20148;-64
2022/02/01 00:12:34;;;;;;;116.30;110.23;;;3.00;99.90;;;;;;4367327;32;20171;-63
2022/02/01 00:15:30;;;;;;;127.50;121.43;;;3.00;99.90;;;;;;4385264;32;20160;-63
2022/02/01 00:18:13;;;;;;;120.03;113.37;;;3.00;99.90;;;;;;4390408;32;20212;-64
2022/02/01 00:35:01;;;;;;;103.17;98.03;;;3.40;99.90;;;;;;4374733;32;20196;-60
2022/02/01 00:37:35;;;;;;;113.57;107.50;;;3.50;99.90;;;;;;4375045;32;20538;-60
2022/02/01 00:40:09;;;;;;;112.20;106.70;;;3.70;99.90;;;;;;4377202;32;20141;-61
2022/02/01 00:42:36;;;;;;;103.93;97.67;;;3.80;99.90;;;;;;4378784;32;20191;-60
2022/02/01 00:45:16;;;;;;;111.40;105.43;;;3.80;99.90;;;;;;4370486;32;20218;-61
2022/02/01 00:47:51;;;;;;;106.10;100.60;;;3.90;99.90;;;;;;4369391;32;20167;-61
2022/02/01 00:50:21;;;;;;;115.77;109.20;;;3.80;99.90;;;;;;4383950;32;20609;-61
2022/02/01 00:59:36;;;;;;;100.77;95.80;;;4.00;99.90;;;;;;4390509;32;20179;-61
2022/02/01 01:02:06;;;;;;;114.63;109.00;;;4.10;99.90;;;;;;4378860;32;20149;-61
2022/02/01 01:04:41;;;;;;;117.27;111.17;;;4.10;99.90;;;;;;4362701;32;20140;-61
2022/02/01 01:07:20;;;;;;;116.77;110.93;;;4.10;99.90;;;;;;4375316;32;20179;-61
2022/02/01 01:09:58;;;;;;;115.90;109.83;;;4.20;99.90;;;;;;4392487;32;20199;-61
2022/02/01 01:12:34;;;;;;;119.27;113.50;;;4.20;99.90;;;;;;4388826;32;20502;-61
2022/02/01 01:15:24;;;;;;;120.33;114.67;;;4.20;99.90;;;;;;4392814;32;20155;-61
2022/02/01 01:18:29;;;;;;;117.50;111.70;;;4.20;99.90;;;;;;4393479;32;20135;-62
2022/02/01 01:44:07;;;;;;;113.27;108.40;;;4.30;99.90;;;;;;4347462;32;20219;-62
2022/02/01 01:54:53;;;;;;;107.60;102.33;;;4.50;99.90;;;;;;4345568;33;20167;-60
2022/02/01 01:57:24;;;;;;;117.83;112.03;;;4.50;99.90;;;;;;4345188;33;20206;-62
2022/02/01 01:59:53;;;;;;;114.17;109.03;;;4.50;99.90;;;;;;4345163;33;20161;-62
2022/02/01 02:02:22;;;;;;;117.77;112.37;;;4.60;99.90;;;;;;4355204;33;20273;-61
2022/02/01 02:04:55;;;;;;;119.03;113.57;;;4.60;99.90;;;;;;4345069;33;20227;-62
2022/02/01 02:07:33;;;;;;;113.33;108.03;;;4.60;99.90;;;;;;4368523;32;20491;-60
2022/02/01 02:10:04;;;;;;;127.33;121.20;;;4.60;99.90;;;;;;4398651;32;20204;-60
2022/02/01 02:12:53;;;;;;;106.50;101.83;;;4.60;99.90;;;;;;4405526;32;20162;-60
2022/02/01 02:15:33;;;;;;;106.63;101.50;;;4.60;99.90;;;;;;4376692;32;20187;-61
2022/02/01 02:18:03;;;;;;;109.07;104.40;;;4.60;99.90;;;;;;4376610;32;20517;-61
2022/02/01 02:20:44;;;;;;;127.57;121.67;;;4.50;99.90;;;;;;4377020;32;20156;-61
2022/02/01 02:23:12;;;;;;;104.87;100.00;;;4.50;99.90;;;;;;4376445;32;20677;-61
2022/02/01 02:25:43;;;;;;;111.60;106.10;;;4.50;99.90;;;;;;4391175;32;20186;-61
2022/02/01 02:28:25;;;;;;;121.17;115.50;;;4.50;99.90;;;;;;4389867;32;20492;-60
2022/02/01 02:30:55;;;;;;;107.57;102.57;;;4.50;99.90;;;;;;4393000;32;20163;-60
2022/02/01 02:33:25;;;;;;;123.20;117.53;;;4.50;99.90;;;;;;4389284;32;20157;-60
2022/02/01 02:35:59;;;;;;;119.20;113.57;;;4.50;99.90;;;;;;4376577;32;20599;-60
2022/02/01 02:38:36;;;;;;;113.60;108.10;;;4.40;99.90;;;;;;4376521;32;20219;-60
2022/02/01 02:41:29;;;;;;;117.13;111.87;;;4.40;99.90;;;;;;4376639;32;20201;-60
2022/02/01 02:46:48;;;;;;;119.03;113.13;;;4.30;99.90;;;;;;4392233;32;20147;-60
2022/02/01 02:49:22;;;;;;;115.23;109.80;;;4.40;99.90;;;;;;4390728;32;20164;-59
2022/02/01 02:51:57;;;;;;;109.60;104.50;;;4.30;99.90;;;;;;4391313;32;20183;-61
2022/02/01 02:54:28;;;;;;;109.90;104.73;;;4.30;99.90;;;;;;4391011;32;20148;-62
2022/02/01 02:57:04;;;;;;;113.97;108.57;;;4.30;99.90;;;;;;4392052;32;20544;-62
2022/02/01 02:59:36;;;;;;;117.20;111.37;;;4.30;99.90;;;;;;4395237;32;20572;-62
2022/02/01 03:02:09;;;;;;;108.60;103.43;;;4.30;99.90;;;;;;4057848;32;10780883;-62
2022/02/01 03:04:38;;;;;;;113.27;107.43;;;4.30;99.90;;;;;;4381533;32;20153;-62
2022/02/01 03:07:14;;;;;;;122.67;116.57;;;4.20;99.90;;;;;;4387858;32;20184;-62
2022/02/01 03:09:44;;;;;;;108.43;103.27;;;4.30;99.90;;;;;;4393006;32;20176;-61
2022/02/01 03:12:34;;;;;;;113.30;107.70;;;4.30;99.90;;;;;;4406596;32;20198;-62
2022/02/01 03:15:21;;;;;;;115.63;109.40;;;4.30;99.90;;;;;;4398981;32;20177;-62
2022/02/01 03:20:31;;;;;;;109.80;103.87;;;4.30;99.90;;;;;;4342178;33;20242;-61
2022/02/01 03:23:01;;;;;;;109.03;103.70;;;4.30;99.90;;;;;;4343227;33;20210;-62
2022/02/01 03:25:29;;;;;;;104.23;99.40;;;4.30;99.90;;;;;;4343349;33;20604;-61
2022/02/01 03:27:59;;;;;;;110.93;105.27;;;4.30;99.90;;;;;;4343762;33;20204;-62
2022/02/01 03:30:28;;;;;;;111.37;105.67;;;4.40;99.90;;;;;;4344389;33;20161;-62
2022/02/01 03:32:56;;;;;;;108.73;103.03;;;4.40;99.90;;;;;;4343853;33;20152;-62
2022/02/01 03:35:42;;;;;;;113.23;108.20;;;4.40;99.90;;;;;;4339393;33;20237;-62
2022/02/01 03:38:12;;;;;;;109.37;104.47;;;4.40;99.90;;;;;;4329147;33;20196;-61
2022/02/01 03:40:42;;;;;;;111.80;106.13;;;4.50;99.90;;;;;;4343415;33;20547;-62
2022/02/01 03:43:12;;;;;;;121.07;114.93;;;4.60;99.90;;;;;;4351329;33;20211;-62
2022/02/01 03:45:41;;;;;;;118.37;112.13;;;4.60;99.90;;;;;;4340429;33;20206;-62
2022/02/01 03:48:23;;;;;;;101.83;96.93;;;4.70;99.90;;;;;;4343098;33;20531;-62
2022/02/01 03:50:56;;;;;;;103.77;99.10;;;4.70;99.90;;;;;;4328995;33;20173;-62
2022/02/01 03:53:30;;;;;;;105.03;99.83;;;4.60;99.90;;;;;;4329094;33;20669;-61
2022/02/01 03:55:59;;;;;;;107.63;102.37;;;4.70;99.90;;;;;;4333430;33;20168;-62
2022/02/01 03:58:33;;;;;;;109.40;103.90;;;4.70;99.90;;;;;;4377782;32;20156;-62
2022/02/01 04:01:08;;;;;;;116.00;110.50;;;4.70;99.90;;;;;;4389652;32;20587;-62
2022/02/01 04:06:31;;;;;;;114.60;108.80;;;4.80;99.90;;;;;;4388630;32;20214;-61
2022/02/01 04:09:01;;;;;;;108.40;103.20;;;4.80;99.90;;;;;;4382080;32;20168;-61
2022/02/01 04:11:31;;;;;;;109.47;104.03;;;4.80;99.90;;;;;;4390548;32;20153;-60
2022/02/01 04:14:02;;;;;;;100.87;95.83;;;4.90;99.90;;;;;;4390353;32;20163;-61
2022/02/01 04:16:28;;;;;;;104.47;99.53;;;4.90;99.90;;;;;;4385587;32;20168;-61
2022/02/01 04:18:55;;;;;;;107.43;101.43;;;4.90;99.90;;;;;;4381032;32;20167;-61
2022/02/01 04:21:32;;;;;;;107.60;101.67;;;4.90;99.90;;;;;;4390707;32;20152;-61
2022/02/01 04:24:04;;;;;;;103.63;98.73;;;4.90;99.90;;;;;;4390270;32;20588;-61
2022/02/01 04:26:34;;;;;;;113.83;108.37;;;5.00;99.90;;;;;;4386429;32;20572;-60
2022/02/01 04:29:26;;;;;;;112.10;106.77;;;5.00;99.90;;;;;;4377534;32;20156;-61
2022/02/01 04:32:08;;;;;;;103.87;98.70;;;5.10;99.90;;;;;;4375408;32;20216;-60
2022/02/01 04:34:38;;;;;;;101.60;96.53;;;5.00;99.90;;;;;;4384945;32;20586;-60
2022/02/01 04:37:15;;;;;;;105.77;100.67;;;5.10;99.90;;;;;;4394511;32;20211;-63
2022/02/01 04:40:10;;;;;;;98.10;92.90;;;5.10;99.90;;;;;;4378258;32;20175;-60
2022/02/01 04:42:52;;;;;;;104.33;99.40;;;5.10;99.90;;;;;;4387905;32;20637;-60
2022/02/01 04:45:37;;;;;;;105.10;100.33;;;5.10;99.90;;;;;;4393153;32;20143;-60
2022/02/01 04:48:21;;;;;;;104.80;99.67;;;5.10;99.90;;;;;;4382351;32;20152;-60
2022/02/01 04:50:51;;;;;;;99.13;94.27;;;5.20;99.90;;;;;;4378226;32;20476;-62
2022/02/01 04:53:24;;;;;;;107.07;101.93;;;5.20;99.90;;;;;;4378113;32;20163;-62
2022/02/01 04:55:57;;;;;;;96.53;91.60;;;5.20;99.90;;;;;;4380434;32;20136;-60
2022/02/01 04:58:28;;;;;;;105.53;99.97;;;5.20;99.90;;;;;;4385676;32;20211;-61
2022/02/01 05:00:55;;;;;;;100.83;95.80;;;5.20;99.90;;;;;;4393007;32;20167;-61
2022/02/01 05:03:24;;;;;;;97.30;92.00;;;5.40;99.90;;;;;;4392534;32;20161;-62
2022/02/01 05:05:59;;;;;;;112.47;105.77;;;5.20;99.90;;;;;;4393661;32;20159;-61
2022/02/01 05:08:40;;;;;;;115.00;109.30;;;5.20;99.90;;;;;;4388211;32;20183;-62
2022/02/01 05:11:14;;;;;;;108.67;103.87;;;5.10;99.90;;;;;;4392773;32;20460;-62
2022/02/01 05:14:09;;;;;;;108.07;102.77;;;5.10;99.90;;;;;;4393138;32;20491;-61
2022/02/01 05:16:58;;;;;;;99.97;94.73;;;5.10;99.90;;;;;;4393097;32;20191;-62
2022/02/01 05:19:55;;;;;;;99.43;94.60;;;5.00;99.90;;;;;;4389442;32;20564;-62
2022/02/01 05:22:28;;;;;;;105.33;99.83;;;5.00;99.90;;;;;;4378113;32;20149;-62
2022/02/01 05:24:59;;;;;;;101.40;96.47;;;5.00;99.90;;;;;;4390372;32;20184;-62
2022/02/01 05:27:32;;;;;;;102.83;97.60;;;5.00;99.90;;;;;;4390192;32;20148;-62
2022/02/01 05:30:00;;;;;;;107.90;102.07;;;5.00;99.90;;;;;;4377132;32;20149;-62
2022/02/01 05:32:27;;;;;;;103.87;98.40;;;5.00;99.90;;;;;;4390433;32;20156;-61
2022/02/01 05:34:57;;;;;;;109.90;104.57;;;4.90;99.90;;;;;;4407531;32;20586;-61
2022/02/01 05:37:31;;;;;;;98.67;93.30;;;4.90;99.90;;;;;;4406668;32;20492;-62
2022/02/01 05:40:04;;;;;;;104.73;98.70;;;4.90;99.90;;;;;;4392112;32;20149;-62
2022/02/01 05:42:43;;;;;;;113.07;107.07;;;4.90;99.90;;;;;;4390198;32;20184;-62
2022/02/01 05:45:16;;;;;;;98.03;93.20;;;5.00;99.90;;;;;;4386074;32;20171;-61
2022/02/01 05:47:48;;;;;;;108.13;101.77;;;5.10;99.90;;;;;;4390139;32;20189;-62
2022/02/01 05:50:25;;;;;;;101.47;95.77;;;5.10;99.90;;;;;;4378906;32;20157;-62
2022/02/01 05:52:55;;;;;;;96.77;91.70;;;5.10;99.90;;;;;;4386922;32;20278;-61
2022/02/01 05:55:30;;;;;;;85.00;80.37;;;5.10;99.90;;;;;;4389986;32;20202;-62
2022/02/01 05:57:57;;;;;;;91.87;86.53;;;5.10;99.90;;;;;;4395545;32;20488;-61
2022/02/01 06:00:26;;;;;;;96.90;91.77;;;5.20;99.90;;;;;;4377455;32;20512;-61
2022/02/01 06:02:53;;;;;;;91.37;86.37;;;5.20;99.90;;;;;;4390697;32;20156;-62
2022/02/01 06:05:20;;;;;;;90.80;86.00;;;5.30;99.90;;;;;;4392586;32;20152;-62
2022/02/01 06:07:49;;;;;;;97.37;92.40;;;5.30;99.90;;;;;;4388464;32;20172;-61
2022/02/01 06:10:17;;;;;;;92.53;86.80;;;5.30;99.90;;;;;;4384318;32;20164;-61
2022/02/01 06:12:53;;;;;;;84.87;79.73;;;5.20;99.90;;;;;;4385137;32;20171;-62
2022/02/01 06:18:08;;;;;;;93.50;87.87;;;5.20;99.90;;;;;;4394850;32;20358;-62
2022/02/01 06:20:36;;;;;;;99.17;92.20;;;5.20;99.90;;;;;;4396177;32;20153;-61
2022/02/01 06:23:13;;;;;;;98.37;92.27;;;5.20;99.90;;;;;;4396729;32;20199;-62
2022/02/01 06:25:59;;;;;;;87.83;82.50;;;5.20;99.90;;;;;;4396365;32;20212;-62
2022/02/01 06:28:28;;;;;;;95.67;89.57;;;5.20;99.90;;;;;;4388477;32;20155;-61
2022/02/01 06:31:13;;;;;;;93.83;88.73;;;5.20;99.90;;;;;;4391303;32;20190;-62
2022/02/01 06:33:48;;;;;;;96.33;90.63;;;5.20;99.90;;;;;;4394547;32;20186;-61
2022/02/01 06:36:18;;;;;;;94.77;89.07;;;5.20;99.90;;;;;;4396968;32;20200;-62
2022/02/01 06:38:54;;;;;;;98.17;91.73;;;5.20;99.90;;;;;;4395171;32;20173;-61
2022/02/01 06:41:24;;;;;;;92.50;86.47;;;5.20;99.90;;;;;;4396736;32;20148;-61
2022/02/01 06:44:01;;;;;;;98.30;92.00;;;5.20;99.90;;;;;;4397801;32;20160;-61
2022/02/01 06:46:32;;;;;;;97.63;91.30;;;5.20;99.90;;;;;;4391594;32;20609;-61
2022/02/01 06:48:59;;;;;;;103.23;97.43;;;5.20;99.90;;;;;;4398744;32;20220;-61
2022/02/01 06:51:34;;;;;;;112.10;105.97;;;5.20;99.90;;;;;;4390933;32;20198;-61
2022/02/01 06:54:06;;;;;;;102.47;97.03;;;5.20;99.90;;;;;;4388484;32;20183;-61
2022/02/01 06:56:39;;;;;;;110.30;104.03;;;5.20;99.90;;;;;;4392917;32;20160;-62
2022/02/01 06:59:08;;;;;;;116.27;110.23;;;5.20;99.90;;;;;;4393149;32;20190;-62
2022/02/01 07:01:53;;;;;;;105.37;98.47;;;5.20;99.90;;;;;;4390224;32;20167;-60
2022/02/01 07:04:19;;;;;;;110.23;103.73;;;5.20;99.90;;;;;;4393373;32;20180;-60
2022/02/01 07:06:57;;;;;;;118.73;112.27;;;5.20;99.90;;;;;;4398556;32;20220;-60
2022/02/01 07:09:29;;;;;;;113.23;107.37;;;5.30;99.90;;;;;;4401177;32;20515;-62
2022/02/01 07:11:58;;;;;;;123.30;116.63;;;5.30;99.90;;;;;;4394183;32;20212;-63
2022/02/01 07:14:26;;;;;;;122.83;115.83;;;5.30;99.90;;;;;;4398942;32;20177;-63
2022/02/01 07:17:00;;;;;;;121.30;114.33;;;5.30;99.90;;;;;;4390434;32;20152;-63
2022/02/01 07:19:33;;;;;;;137.63;130.13;;;5.30;99.90;;;;;;4396511;32;20170;-63
2022/02/01 07:22:08;;;;;;;142.37;134.57;;;5.30;99.90;;;;;;4388694;32;20156;-63
2022/02/01 07:24:48;;;;;;;139.80;131.50;;;5.30;99.90;;;;;;4382856;32;20491;-63
2022/02/01 07:27:33;;;;;;;134.73;126.73;;;5.30;99.90;;;;;;4390251;32;20535;-63
2022/02/01 07:30:04;;;;;;;128.70;121.00;;;5.40;99.90;;;;;;4392449;32;20155;-63
2022/02/01 07:32:52;;;;;;;137.80;129.47;;;5.40;99.90;;;;;;4380969;32;20145;-62
2022/02/01 07:35:30;;;;;;;135.50;127.67;;;5.40;99.90;;;;;;4385647;32;20145;-60
2022/02/01 07:38:00;;;;;;;142.07;133.43;;;5.40;99.90;;;;;;4385631;32;20207;-61
2022/02/01 07:40:27;;;;;;;159.00;149.93;;;5.40;99.90;;;;;;4384326;32;20167;-61
2022/02/01 07:42:56;;;;;;;155.27;146.63;;;5.50;99.90;;;;;;4382786;32;20156;-61
2022/02/01 07:45:32;;;;;;;163.40;154.33;;;5.60;99.90;;;;;;4377419;32;20188;-61
2022/02/01 07:48:06;;;;;;;168.07;159.27;;;5.60;99.90;;;;;;4390050;32;20156;-61
2022/02/01 07:50:33;;;;;;;154.80;145.93;;;5.60;99.90;;;;;;4380878;32;20199;-60
2022/02/01 07:53:02;;;;;;;162.30;153.60;;;5.60;99.90;;;;;;4377705;32;20549;-61
2022/02/01 07:55:35;;;;;;;184.17;173.23;;;5.60;99.90;;;;;;4390292;32;20148;-61
2022/02/01 07:58:11;;;;;;;188.63;178.43;;;5.60;99.90;;;;;;4383664;32;20196;-61
2022/02/01 08:00:39;;;;;;;210.73;200.27;;;5.70;99.90;;;;;;4375526;32;20151;-61
2022/02/01 08:03:12;;;;;;;226.57;215.43;;;5.70;99.90;;;;;;4385435;32;20642;-61
2022/02/01 08:05:43;;;;;;;240.97;229.23;;;5.70;99.90;;;;;;4388298;32;20172;-61
2022/02/01 08:08:12;;;;;;;233.20;221.83;;;5.80;99.90;;;;;;4381676;32;20563;-64
2022/02/01 08:10:44;;;;;;;221.37;210.77;;;5.80;99.90;;;;;;4395306;32;20198;-63
2022/02/01 08:19:10;;;;;;;196.23;186.60;;;5.90;99.90;;;;;;4380038;32;20184;-63
2022/02/01 08:21:43;;;;;;;194.70;185.20;;;5.90;99.90;;;;;;4380715;32;20170;-61
2022/02/01 08:24:14;;;;;;;193.87;184.57;;;6.00;99.90;;;;;;4380003;32;20134;-64
2022/02/01 08:26:44;;;;;;;204.47;195.13;;;6.00;99.90;;;;;;4380890;32;20210;-62
2022/02/01 08:29:16;;;;;;;229.77;219.40;;;6.10;99.90;;;;;;4379768;32;20161;-64
2022/02/01 08:31:55;;;;;;;230.87;220.30;;;6.10;99.90;;;;;;4381267;32;20564;-64
2022/02/01 08:34:26;;;;;;;230.03;219.43;;;6.20;99.90;;;;;;4395242;32;20197;-64
2022/02/01 08:36:53;;;;;;;229.67;219.53;;;6.20;99.90;;;;;;4394869;32;20506;-64
2022/02/01 08:39:30;;;;;;;245.07;233.37;;;6.20;99.90;;;;;;4395893;32;20505;-63
2022/02/01 08:42:01;;;;;;;251.80;240.20;;;6.20;99.90;;;;;;4395183;32;20151;-61
2022/02/01 08:44:35;;;;;;;230.20;220.27;;;6.30;99.90;;;;;;4392193;32;20153;-62
2022/02/01 08:47:10;;;;;;;240.07;229.70;;;6.40;99.90;;;;;;4380430;32;20245;-65
2022/02/01 08:49:49;;;;;;;154.80;147.50;;;6.40;99.90;;;;;;4379682;32;20149;-62
2022/02/01 08:52:28;;;;;;;116.20;110.63;;;6.40;99.90;;;;;;4380598;32;20191;-65
2022/02/01 08:54:55;;;;;;;115.27;109.87;;;6.40;99.90;;;;;;4379925;32;20596;-62
2022/02/01 08:57:31;;;;;;;114.30;109.00;;;6.60;99.90;;;;;;4380232;32;20189;-63
2022/02/01 09:00:06;;;;;;;123.67;118.10;;;6.60;99.90;;;;;;4379929;32;20229;-61
2022/02/01 09:02:37;;;;;;;117.00;111.63;;;6.60;99.90;;;;;;4379606;32;20214;-63
2022/02/01 09:05:12;;;;;;;109.60;104.43;;;6.50;99.90;;;;;;4394714;32;20645;-61
2022/02/01 09:07:40;;;;;;;126.60;120.77;;;6.60;99.90;;;;;;4394789;32;20167;-64
2022/02/01 09:10:08;;;;;;;116.43;110.90;;;6.70;99.90;;;;;;4395236;32;20160;-63
2022/02/01 09:12:40;;;;;;;117.63;112.10;;;6.70;99.90;;;;;;4394059;32;20209;-62
2022/02/01 09:15:17;;;;;;;113.07;107.93;;;6.70;99.90;;;;;;4379901;32;20212;-63
2022/02/01 09:17:51;;;;;;;108.03;102.90;;;6.70;99.90;;;;;;4379704;32;20199;-63
2022/02/01 09:20:40;;;;;;;114.73;109.17;;;6.70;99.90;;;;;;4378876;32;20165;-66
2022/02/01 09:23:11;;;;;;;107.07;102.17;;;6.80;99.90;;;;;;4377924;32;20161;-62
2022/02/01 09:25:57;;;;;;;109.03;104.03;;;6.90;99.90;;;;;;4377236;32;20183;-67
2022/02/01 09:28:23;;;;;;;104.60;99.43;;;6.90;99.90;;;;;;4377508;32;20159;-62
2022/02/01 09:30:53;;;;;;;96.03;91.30;;;6.90;99.90;;;;;;4378132;32;20145;-65
2022/02/01 09:33:24;;;;;;;105.47;100.33;;;6.90;99.90;;;;;;4378153;32;20203;-62
2022/02/01 09:35:55;;;;;;;101.93;96.83;;;6.90;99.90;;;;;;4377650;32;20214;-62
2022/02/01 09:38:30;;;;;;;98.40;93.70;;;6.90;99.90;;;;;;4377498;32;20163;-62
2022/02/01 09:40:58;;;;;;;98.00;93.27;;;7.00;99.90;;;;;;4377475;32;20549;-62
2022/02/01 09:43:31;;;;;;;105.00;100.20;;;6.90;99.90;;;;;;4378015;32;20216;-63
2022/02/01 09:46:03;;;;;;;94.00;89.20;;;6.90;99.90;;;;;;4377196;32;20149;-62
2022/02/01 09:48:30;;;;;;;89.40;85.10;;;7.00;99.90;;;;;;4377241;32;20175;-62
2022/02/01 09:51:08;;;;;;;94.60;90.07;;;7.00;99.90;;;;;;4377045;32;20171;-62
2022/02/01 09:53:39;;;;;;;84.30;80.10;;;7.00;99.90;;;;;;4377391;32;20180;-63
2022/02/01 09:56:07;;;;;;;89.37;85.13;;;7.10;99.90;;;;;;4377861;32;20169;-63
2022/02/01 09:58:56;;;;;;;89.20;84.60;;;7.10;99.90;;;;;;4377613;32;20204;-62
2022/02/01 10:01:47;;;;;;;82.70;78.67;;;7.10;99.90;;;;;;4345074;33;20180;-63
2022/02/01 10:04:24;;;;;;;89.80;85.40;;;7.10;99.90;;;;;;4348181;33;20153;-63
2022/02/01 10:07:07;;;;;;;92.70;88.00;;;7.00;99.90;;;;;;4360154;33;20236;-63
2022/02/01 10:09:34;;;;;;;85.90;81.70;;;7.10;99.90;;;;;;4360497;32;20153;-62
2022/02/01 10:12:26;;;;;;;78.40;74.40;;;7.10;99.90;;;;;;4360340;32;20157;-63
2022/02/01 10:15:11;;;;;;;83.63;79.17;;;7.20;99.90;;;;;;4354747;32;20206;-61
2022/02/01 10:17:56;;;;;;;83.43;79.00;;;7.20;99.90;;;;;;4345707;33;20146;-63
2022/02/01 10:20:33;;;;;;;79.00;74.80;;;7.20;99.90;;;;;;4375389;32;20191;-63
2022/02/01 10:23:24;;;;;;;76.07;72.17;;;7.30;99.90;;;;;;4379893;32;20487;-63
2022/02/01 10:26:12;;;;;;;80.47;76.23;;;7.30;99.90;;;;;;4384255;32;20256;-63
2022/02/01 10:29:18;;;;;;;86.33;81.60;;;7.40;99.90;;;;;;4391728;32;20493;-63
2022/02/01 10:32:00;;;;;;;73.30;69.03;;;7.40;99.90;;;;;;4391354;32;20232;-63
2022/02/01 10:34:54;;;;;;;76.50;72.20;;;7.50;99.90;;;;;;4391098;32;20149;-62
2022/02/01 10:37:32;;;;;;;83.00;78.17;;;7.60;99.90;;;;;;4376485;32;20191;-63
2022/02/01 10:40:05;;;;;;;77.00;72.77;;;7.60;99.90;;;;;;4376587;32;20583;-63
2022/02/01 10:42:33;;;;;;;84.30;79.83;;;7.60;99.90;;;;;;4377338;32;20200;-63
2022/02/01 10:45:01;;;;;;;82.43;77.30;;;7.60;99.90;;;;;;4377352;32;20218;-63
2022/02/01 10:47:51;;;;;;;71.73;67.77;;;7.70;99.90;;;;;;4390737;32;20144;-63
2022/02/01 10:50:37;;;;;;;78.03;73.03;;;7.70;99.90;;;;;;4391545;32;20183;-63
2022/02/01 10:53:23;;;;;;;74.90;71.03;;;7.70;99.90;;;;;;4391644;32;20152;-63
2022/02/01 10:55:58;;;;;;;77.17;72.60;;;7.80;99.90;;;;;;4384810;32;20192;-63
2022/02/01 10:58:31;;;;;;;77.57;73.03;;;7.80;99.90;;;;;;4377940;32;20459;-63
2022/02/01 11:01:09;;;;;;;70.57;66.50;;;7.80;99.90;;;;;;4375904;32;20212;-63
2022/02/01 11:03:52;;;;;;;80.57;75.63;;;7.80;99.90;;;;;;4375795;32;20199;-63
2022/02/01 11:06:19;;;;;;;81.27;76.80;;;7.90;99.90;;;;;;4376720;32;20152;-63
2022/02/01 11:08:53;;;;;;;74.87;70.60;;;8.00;99.90;;;;;;4375921;32;20220;-62
2022/02/01 11:12:04;;;;;;;78.43;74.03;;;8.00;99.90;;;;;;4376126;32;20175;-62
2022/02/01 11:14:53;;;;;;;81.03;76.37;;;8.10;99.90;;;;;;4381184;32;20535;-62
2022/02/01 11:17:39;;;;;;;78.53;73.67;;;8.20;99.90;;;;;;4376875;32;20185;-62
2022/02/01 11:22:53;;;;;;;77.83;72.90;;;8.20;99.90;;;;;;4375925;32;20176;-62
2022/02/01 11:25:29;;;;;;;60.17;56.23;;;8.20;99.90;;;;;;4375667;32;20212;-62
2022/02/01 11:28:11;;;;;;;63.27;58.97;;;8.20;99.90;;;;;;4377194;32;20554;-62
2022/02/01 11:30:43;;;;;;;69.03;65.00;;;8.30;99.90;;;;;;4375836;32;20179;-63
2022/02/01 11:33:13;;;;;;;75.67;70.37;;;8.30;99.90;;;;;;4375661;32;20191;-62
2022/02/01 11:35:41;;;;;;;63.03;58.70;;;8.20;99.90;;;;;;4375537;32;20147;-62
2022/02/01 11:38:21;;;;;;;67.00;62.43;;;8.30;99.90;;;;;;4387204;32;20156;-62
2022/02/01 11:40:49;;;;;;;73.40;67.70;;;8.40;99.90;;;;;;4390407;32;20218;-62
2022/02/01 11:43:29;;;;;;;76.87;71.43;;;8.30;99.90;;;;;;4385765;32;20175;-61
2022/02/01 11:46:07;;;;;;;95.43;89.37;;;8.40;99.90;;;;;;4375382;32;20189;-62
2022/02/01 11:48:55;;;;;;;77.90;71.97;;;8.40;99.90;;;;;;4375773;32;20204;-62
2022/02/01 11:51:32;;;;;;;85.67;79.60;;;8.40;99.90;;;;;;4362000;32;20202;-62
2022/02/01 11:56:52;;;;;;;78.80;73.17;;;8.40;99.90;;;;;;4391298;32;20188;-63
2022/02/01 12:02:36;;;;;;;79.83;74.60;;;8.40;99.90;;;;;;4389375;32;20192;-63
2022/02/01 12:05:13;;;;;;;70.20;65.40;;;8.40;99.90;;;;;;4359681;32;20138;-63
2022/02/01 12:08:05;;;;;;;107.20;100.43;;;8.40;99.90;;;;;;4375359;32;20144;-63
2022/02/01 12:10:34;;;;;;;96.87;91.13;;;8.40;99.90;;;;;;4375210;32;20142;-63
2022/02/01 12:13:03;;;;;;;86.60;81.13;;;8.40;99.90;;;;;;4375696;32;20183;-63
2022/02/01 12:15:37;;;;;;;75.60;70.53;;;8.50;99.90;;;;;;4360717;32;20156;-63
2022/02/01 12:18:16;;;;;;;85.30;79.73;;;8.60;99.90;;;;;;4360427;32;20141;-62
2022/02/01 12:20:51;;;;;;;86.37;80.53;;;8.50;99.90;;;;;;4360496;33;20160;-62
2022/02/01 12:23:28;;;;;;;79.10;73.90;;;8.60;99.90;;;;;;4360417;32;20632;-62
2022/02/01 12:25:57;;;;;;;91.13;85.73;;;8.80;99.90;;;;;;4359918;33;20197;-62
2022/02/01 12:28:29;;;;;;;92.97;87.80;;;8.80;99.90;;;;;;4360763;33;20138;-63
2022/02/01 12:31:13;;;;;;;96.33;90.77;;;9.00;99.90;;;;;;4360639;33;20197;-62
2022/02/01 12:33:55;;;;;;;101.13;95.67;;;9.00;99.90;;;;;;4359851;32;20242;-62
2022/02/01 12:39:20;;;;;;;110.50;104.40;;;9.00;99.90;;;;;;4360192;33;20181;-62
2022/02/01 12:42:01;;;;;;;99.60;93.83;;;9.10;99.90;;;;;;4371324;32;20176;-62
2022/02/01 12:47:29;;;;;;;110.30;105.00;;;9.10;99.90;;;;;;4360608;33;20163;-62
2022/02/01 12:50:02;;;;;;;106.43;100.67;;;9.10;99.90;;;;;;4360185;33;20180;-62
2022/02/01 12:52:50;;;;;;;108.70;103.20;;;9.10;99.90;;;;;;4360121;33;20177;-62
2022/02/01 12:55:31;;;;;;;100.27;94.60;;;9.10;99.90;;;;;;4359743;32;20166;-63
2022/02/01 12:58:04;;;;;;;105.00;100.03;;;9.20;99.90;;;;;;4362780;33;20144;-62
2022/02/01 13:00:32;;;;;;;107.80;102.30;;;9.20;99.90;;;;;;4362767;32;20224;-63
2022/02/01 13:03:03;;;;;;;115.80;109.93;;;9.30;99.90;;;;;;4367851;32;20158;-62
2022/02/01 13:05:38;;;;;;;124.97;119.10;;;9.30;99.90;;;;;;4392591;32;20593;-63
2022/02/01 13:22:13;;;;;;;122.00;116.20;;;9.50;99.90;;;;;;4317269;33;20188;-63
2022/02/01 13:24:53;;;;;;;122.73;116.40;;;9.50;99.90;;;;;;4316204;33;20163;-61
2022/02/01 13:27:21;;;;;;;118.93;113.17;;;9.40;99.90;;;;;;4329737;33;20172;-64
2022/02/01 13:30:04;;;;;;;126.13;119.77;;;9.40;99.90;;;;;;4330715;33;20200;-61
2022/02/01 13:32:38;;;;;;;115.73;110.03;;;9.40;99.90;;;;;;4331335;33;20179;-61
2022/02/01 13:35:09;;;;;;;126.07;120.43;;;9.40;99.90;;;;;;4330688;33;20192;-61
2022/02/01 13:37:55;;;;;;;121.43;115.30;;;9.40;99.90;;;;;;4327196;33;20640;-61
2022/02/01 13:40:31;;;;;;;102.53;97.97;;;9.50;99.90;;;;;;4331663;33;20146;-62
2022/02/01 13:42:58;;;;;;;106.00;100.23;;;9.40;99.90;;;;;;4330862;33;20236;-62
2022/02/01 13:45:38;;;;;;;116.40;111.30;;;9.50;99.90;;;;;;4330456;33;20158;-62
2022/02/01 13:48:07;;;;;;;107.63;102.63;;;9.50;99.90;;;;;;4316049;33;20161;-62
2022/02/01 13:50:37;;;;;;;101.20;95.83;;;9.50;99.90;;;;;;4315896;33;20494;-62
2022/02/01 13:53:09;;;;;;;93.57;89.23;;;9.50;99.90;;;;;;4325231;33;20166;-62
2022/02/01 13:56:00;;;;;;;92.80;87.73;;;9.50;99.90;;;;;;4340266;32;20152;-63
2022/02/01 13:58:50;;;;;;;93.60;89.10;;;9.50;99.90;;;;;;4343310;33;20199;-62
2022/02/01 14:01:20;;;;;;;90.40;85.57;;;9.50;99.90;;;;;;4341882;33;20631;-62
2022/02/01 14:03:56;;;;;;;91.17;86.90;;;9.50;99.90;;;;;;4344171;33;20273;-62
2022/02/01 14:06:40;;;;;;;99.17;94.27;;;9.40;99.90;;;;;;4343429;33;20172;-62
2022/02/01 14:09:16;;;;;;;105.23;100.17;;;9.40;99.90;;;;;;4340686;33;20634;-66
2022/02/01 14:14:47;;;;;;;98.50;92.80;;;9.40;99.90;;;;;;4287190;33;20165;-66
2022/02/01 14:26:03;;;;;;;111.27;105.40;;;9.50;99.90;;;;;;4333270;33;20225;-62
2022/02/01 14:28:46;;;;;;;116.67;110.87;;;9.50;99.90;;;;;;4325478;33;20281;-64
2022/02/01 14:34:06;;;;;;;120.20;113.97;;;9.40;99.90;;;;;;4342137;33;20210;-62
2022/02/01 14:36:38;;;;;;;121.40;114.90;;;9.40;99.90;;;;;;4327006;33;20311;-63
2022/02/01 14:45:18;;;;;;;119.77;113.97;;;9.50;99.90;;;;;;4327658;33;20223;-63
2022/02/01 14:47:53;;;;;;;126.30;120.17;;;9.50;99.90;;;;;;4336938;33;20173;-63
2022/02/01 14:50:20;;;;;;;139.03;132.13;;;9.50;99.90;;;;;;4329455;32;20173;-67
2022/02/01 14:52:47;;;;;;;108.27;102.10;;;9.50;99.90;;;;;;4388864;32;20189;-63
2022/02/01 14:55:36;;;;;;;95.20;89.53;;;9.50;99.90;;;;;;4391422;32;20152;-64
2022/02/01 15:03:54;;;;;;;97.60;92.60;;;9.50;99.90;;;;;;4391016;32;20178;-63
2022/02/01 15:12:11;;;;;;;108.03;102.37;;;9.50;99.90;;;;;;4345833;33;20159;-64
2022/02/01 15:14:38;;;;;;;102.43;97.20;;;9.60;99.90;;;;;;4344013;33;20165;-63
2022/02/01 15:17:06;;;;;;;106.93;100.57;;;9.60;99.90;;;;;;4348266;33;20165;-63